Time;durP1;ratioP1;P1;durP2;ratioP2;P2;SDS_P1;SDS_P2;PMS_P1;PMS_P2;Temp;Humidity;BMP_temperature;BMP_pressure;BME280_temperature;BME280_humidity;BME280_pressure;Samples;Min_cycle;Max_cycle;Signal;HPM_P1;HPM_P2
2023/10/22 00:00:07;;;;;;;13.80;7.00;;;;;;;;;;767827;180;917373;-66
2023/10/22 00:02:35;;;;;;;11.85;5.87;;;;;;;;;;762570;182;918707;-66
2023/10/22 00:05:00;;;;;;;13.10;6.57;;;;;;;;;;762285;179;911511;-66
2023/10/22 00:07:26;;;;;;;9.60;5.93;;;;;;;;;;758950;180;916188;-65
2023/10/22 00:09:54;;;;;;;8.17;5.33;;;;;;;;;;759172;185;914945;-70
2023/10/22 00:12:18;;;;;;;9.60;5.30;;;;;;;;;;755584;183;913230;-70
2023/10/22 00:14:43;;;;;;;10.27;5.17;;;;;;;;;;763026;183;916515;-65
2023/10/22 00:17:10;;;;;;;11.80;6.65;;;;;;;;;;766977;180;921187;-70
2023/10/22 00:19:36;;;;;;;10.13;4.70;;;;;;;;;;771145;180;859398;-71
2023/10/22 00:22:02;;;;;;;9.33;4.87;;;;;;;;;;757793;182;922608;-66
2023/10/22 00:24:28;;;;;;;8.88;4.87;;;;;;;;;;766329;180;1219557;-70
2023/10/22 00:26:53;;;;;;;9.57;5.20;;;;;;;;;;774125;180;817878;-70
2023/10/22 00:29:19;;;;;;;10.07;5.00;;;;;;;;;;768459;182;819965;-70
2023/10/22 00:31:45;;;;;;;7.50;5.20;;;;;;;;;;756509;182;815630;-70
2023/10/22 00:34:11;;;;;;;7.80;4.20;;;;;;;;;;768987;182;922678;-66
2023/10/22 00:36:40;;;;;;;9.50;5.03;;;;;;;;;;768046;180;918151;-64
2023/10/22 00:39:02;;;;;;;13.70;4.47;;;;;;;;;;766553;180;919370;-70
2023/10/22 00:41:28;;;;;;;15.23;5.50;;;;;;;;;;776539;180;919183;-65
2023/10/22 00:43:54;;;;;;;10.47;6.00;;;;;;;;;;762076;180;919467;-65
2023/10/22 00:46:20;;;;;;;6.63;4.93;;;;;;;;;;762088;182;919120;-70
2023/10/22 00:48:46;;;;;;;11.57;4.67;;;;;;;;;;769760;180;919307;-67
2023/10/22 00:51:12;;;;;;;8.53;4.50;;;;;;;;;;771702;182;919265;-70
2023/10/22 00:53:37;;;;;;;9.33;4.63;;;;;;;;;;754495;183;916887;-70
2023/10/22 00:56:05;;;;;;;10.90;4.67;;;;;;;;;;764474;180;852036;-70
2023/10/22 00:58:29;;;;;;;8.33;4.40;;;;;;;;;;769316;182;919284;-65
2023/10/22 01:00:55;;;;;;;7.77;4.33;;;;;;;;;;767260;181;920165;-66
2023/10/22 01:03:22;;;;;;;8.07;4.27;;;;;;;;;;767713;181;943229;-66
2023/10/22 01:05:47;;;;;;;9.73;4.73;;;;;;;;;;772533;180;918517;-65
2023/10/22 01:08:13;;;;;;;12.80;4.73;;;;;;;;;;767464;182;920876;-65
2023/10/22 01:10:38;;;;;;;6.33;3.93;;;;;;;;;;765966;182;917450;-70
2023/10/22 01:13:05;;;;;;;6.90;4.00;;;;;;;;;;772201;181;816900;-66
2023/10/22 01:15:30;;;;;;;7.27;3.90;;;;;;;;;;756263;183;919556;-70
2023/10/22 01:17:56;;;;;;;5.53;4.40;;;;;;;;;;760577;183;922469;-67
2023/10/22 01:20:22;;;;;;;6.57;4.70;;;;;;;;;;764433;183;898107;-70
2023/10/22 01:22:48;;;;;;;10.33;4.90;;;;;;;;;;772822;179;919382;-70
2023/10/22 01:25:14;;;;;;;8.27;4.40;;;;;;;;;;761200;179;920641;-65
2023/10/22 01:27:39;;;;;;;9.23;4.70;;;;;;;;;;757917;182;920690;-66
2023/10/22 01:30:06;;;;;;;7.00;4.63;;;;;;;;;;768446;183;918660;-65
2023/10/22 01:32:33;;;;;;;12.13;5.07;;;;;;;;;;769601;181;814959;-64
2023/10/22 01:34:57;;;;;;;8.00;5.00;;;;;;;;;;770853;182;919145;-65
2023/10/22 01:37:23;;;;;;;9.00;4.93;;;;;;;;;;774235;180;820876;-65
2023/10/22 01:39:49;;;;;;;8.82;4.47;;;;;;;;;;767241;182;919808;-66
2023/10/22 01:42:15;;;;;;;12.20;5.07;;;;;;;;;;765613;183;908826;-71
2023/10/22 01:44:41;;;;;;;11.97;4.47;;;;;;;;;;768695;183;890918;-66
2023/10/22 01:47:07;;;;;;;6.93;4.70;;;;;;;;;;769650;180;917778;-65
2023/10/22 01:49:32;;;;;;;7.00;4.40;;;;;;;;;;762578;182;918283;-65
2023/10/22 01:51:58;;;;;;;9.40;4.17;;;;;;;;;;767691;180;919318;-70
2023/10/22 01:54:24;;;;;;;10.10;4.57;;;;;;;;;;772223;181;919307;-71
2023/10/22 01:56:50;;;;;;;10.50;4.60;;;;;;;;;;769381;182;818195;-71
2023/10/22 01:59:16;;;;;;;6.63;3.10;;;;;;;;;;766498;182;919724;-67
2023/10/22 02:01:42;;;;;;;8.60;3.50;;;;;;;;;;773694;180;889435;-71
2023/10/22 02:04:07;;;;;;;6.13;3.30;;;;;;;;;;766726;180;928569;-70
2023/10/22 02:06:33;;;;;;;11.68;4.22;;;;;;;;;;766381;180;894431;-71
2023/10/22 02:09:00;;;;;;;7.00;4.07;;;;;;;;;;769304;180;918882;-70
2023/10/22 02:11:25;;;;;;;7.03;3.20;;;;;;;;;;767293;180;919006;-70
2023/10/22 02:13:51;;;;;;;9.73;3.60;;;;;;;;;;765145;183;922324;-70
2023/10/22 02:16:17;;;;;;;6.30;3.28;;;;;;;;;;766910;182;919147;-66
2023/10/22 02:18:43;;;;;;;7.10;3.67;;;;;;;;;;771509;180;919083;-65
2023/10/22 02:21:08;;;;;;;12.67;4.10;;;;;;;;;;767640;182;919731;-70
2023/10/22 02:23:34;;;;;;;6.90;3.60;;;;;;;;;;759181;182;916218;-66
2023/10/22 02:26:00;;;;;;;7.53;4.00;;;;;;;;;;765819;183;821062;-66
2023/10/22 02:28:26;;;;;;;9.70;3.73;;;;;;;;;;760201;182;916395;-70
2023/10/22 02:30:52;;;;;;;6.68;3.80;;;;;;;;;;766220;182;915793;-71
2023/10/22 02:33:18;;;;;;;7.60;4.40;;;;;;;;;;762910;183;910822;-72
2023/10/22 02:35:43;;;;;;;5.37;3.53;;;;;;;;;;761478;180;915332;-67
2023/10/22 02:38:09;;;;;;;7.57;4.00;;;;;;;;;;768240;180;924694;-66
2023/10/22 02:40:36;;;;;;;8.68;4.50;;;;;;;;;;772790;180;915561;-71
2023/10/22 02:43:02;;;;;;;9.70;4.10;;;;;;;;;;772223;179;1017047;-66
2023/10/22 02:45:28;;;;;;;6.40;3.97;;;;;;;;;;769619;181;919017;-71
2023/10/22 02:47:55;;;;;;;22.43;4.17;;;;;;;;;;766929;182;919918;-66
2023/10/22 02:50:20;;;;;;;9.37;3.97;;;;;;;;;;770580;182;817314;-70
2023/10/22 02:52:45;;;;;;;8.40;4.77;;;;;;;;;;768325;180;918283;-65
2023/10/22 02:55:11;;;;;;;12.70;4.50;;;;;;;;;;770150;180;885338;-70
2023/10/22 02:57:37;;;;;;;8.10;3.77;;;;;;;;;;773714;180;861914;-71
2023/10/22 03:00:03;;;;;;;7.53;4.50;;;;;;;;;;766808;180;936284;-67
2023/10/22 03:02:29;;;;;;;7.93;4.20;;;;;;;;;;767489;180;920062;-66
2023/10/22 03:04:55;;;;;;;7.40;4.83;;;;;;;;;;771324;180;921411;-64
2023/10/22 03:07:22;;;;;;;7.70;5.30;;;;;;;;;;767333;182;921599;-73
2023/10/22 03:09:46;;;;;;;7.13;5.23;;;;;;;;;;767950;180;916718;-67
2023/10/22 03:12:12;;;;;;;8.10;5.57;;;;;;;;;;767258;183;914781;-64
2023/10/22 03:14:38;;;;;;;11.37;5.20;;;;;;;;;;772868;181;818168;-72
2023/10/22 03:17:04;;;;;;;8.90;5.33;;;;;;;;;;760690;183;818483;-66
2023/10/22 03:19:30;;;;;;;10.77;6.77;;;;;;;;;;765620;180;917499;-66
2023/10/22 03:21:56;;;;;;;13.30;5.70;;;;;;;;;;770872;180;921234;-73
2023/10/22 03:24:22;;;;;;;8.03;6.20;;;;;;;;;;765531;180;919279;-73
2023/10/22 03:26:47;;;;;;;11.03;4.87;;;;;;;;;;766792;182;921102;-66
2023/10/22 03:29:13;;;;;;;10.63;5.13;;;;;;;;;;771968;182;922280;-73
2023/10/22 03:31:39;;;;;;;8.50;5.33;;;;;;;;;;766701;182;923469;-65
2023/10/22 03:34:05;;;;;;;9.80;5.70;;;;;;;;;;767220;182;923769;-66
2023/10/22 03:36:31;;;;;;;12.70;6.17;;;;;;;;;;773699;182;814684;-73
2023/10/22 03:38:56;;;;;;;10.97;5.23;;;;;;;;;;764836;180;929058;-73
2023/10/22 03:41:22;;;;;;;8.87;6.50;;;;;;;;;;765360;182;919314;-73
2023/10/22 03:43:49;;;;;;;9.50;5.63;;;;;;;;;;766417;181;916798;-66
2023/10/22 03:46:14;;;;;;;10.98;6.40;;;;;;;;;;773110;181;888142;-73
2023/10/22 03:48:40;;;;;;;13.87;7.03;;;;;;;;;;771195;179;918043;-65
2023/10/22 03:51:06;;;;;;;7.07;5.72;;;;;;;;;;769300;179;918643;-73
2023/10/22 03:53:32;;;;;;;9.60;5.90;;;;;;;;;;772626;180;918195;-66
2023/10/22 03:55:57;;;;;;;11.27;6.60;;;;;;;;;;767573;180;918591;-73
2023/10/22 03:58:25;;;;;;;11.67;5.73;;;;;;;;;;769575;181;918841;-72
2023/10/22 04:00:50;;;;;;;10.63;6.70;;;;;;;;;;772420;181;918619;-72
2023/10/22 04:03:15;;;;;;;9.97;5.37;;;;;;;;;;768471;182;896211;-72
2023/10/22 04:05:41;;;;;;;13.60;6.00;;;;;;;;;;767945;182;917186;-65
2023/10/22 04:08:07;;;;;;;12.53;6.20;;;;;;;;;;770196;182;904685;-72
2023/10/22 04:10:32;;;;;;;10.50;6.57;;;;;;;;;;769628;181;815186;-65
2023/10/22 04:12:58;;;;;;;7.90;5.25;;;;;;;;;;753174;183;919493;-73
2023/10/22 04:15:24;;;;;;;12.77;6.00;;;;;;;;;;766571;182;916310;-72
2023/10/22 04:17:50;;;;;;;8.93;5.70;;;;;;;;;;771307;180;819221;-66
2023/10/22 04:20:16;;;;;;;7.20;5.40;;;;;;;;;;765221;182;920658;-72
2023/10/22 04:22:42;;;;;;;7.97;5.90;;;;;;;;;;767082;183;918661;-72
2023/10/22 04:25:08;;;;;;;14.30;6.70;;;;;;;;;;772076;181;918654;-66
2023/10/22 04:27:33;;;;;;;12.13;6.93;;;;;;;;;;768917;180;918696;-66
2023/10/22 04:29:59;;;;;;;10.77;6.82;;;;;;;;;;769079;181;902719;-72
2023/10/22 04:32:26;;;;;;;11.00;5.43;;;;;;;;;;771882;183;917128;-65
2023/10/22 04:34:51;;;;;;;12.43;6.13;;;;;;;;;;766190;180;918722;-73
2023/10/22 04:37:19;;;;;;;8.03;5.87;;;;;;;;;;766919;180;887586;-73
2023/10/22 04:39:43;;;;;;;9.20;5.77;;;;;;;;;;767699;181;920521;-73
2023/10/22 04:42:08;;;;;;;11.03;6.20;;;;;;;;;;773252;182;918534;-66
2023/10/22 04:44:34;;;;;;;10.53;6.27;;;;;;;;;;758782;182;919923;-73
2023/10/22 04:47:00;;;;;;;11.87;6.93;;;;;;;;;;759590;182;920198;-73
2023/10/22 04:49:26;;;;;;;8.90;5.80;;;;;;;;;;770932;182;901853;-72
2023/10/22 04:51:53;;;;;;;12.77;6.17;;;;;;;;;;760535;183;917093;-73
2023/10/22 04:54:18;;;;;;;12.20;5.20;;;;;;;;;;765691;180;817388;-66
2023/10/22 04:56:44;;;;;;;8.60;5.73;;;;;;;;;;764561;182;928324;-67
2023/10/22 04:59:10;;;;;;;8.47;5.90;;;;;;;;;;769509;180;843263;-68
2023/10/22 05:01:35;;;;;;;11.13;6.80;;;;;;;;;;768724;180;916626;-65
2023/10/22 05:04:02;;;;;;;11.20;5.70;;;;;;;;;;769613;180;920458;-67
2023/10/22 05:06:28;;;;;;;10.80;5.37;;;;;;;;;;761852;182;920226;-66
2023/10/22 05:08:54;;;;;;;6.73;5.47;;;;;;;;;;762621;180;919079;-66
2023/10/22 05:11:20;;;;;;;6.63;5.07;;;;;;;;;;761221;182;819855;-72
2023/10/22 05:13:46;;;;;;;10.60;5.03;;;;;;;;;;763858;181;817567;-73
2023/10/22 05:16:11;;;;;;;7.17;6.00;;;;;;;;;;765532;180;920662;-70
2023/10/22 05:18:38;;;;;;;9.27;6.10;;;;;;;;;;767746;180;915149;-73
2023/10/22 05:21:05;;;;;;;12.73;6.50;;;;;;;;;;773066;182;812393;-72
2023/10/22 05:23:29;;;;;;;8.60;5.90;;;;;;;;;;766241;180;910348;-72
2023/10/22 05:26:09;;;;;;;12.33;6.80;;;;;;;;;;767218;180;951639;-72
2023/10/22 05:28:35;;;;;;;8.60;6.30;;;;;;;;;;765820;180;936136;-66
2023/10/22 05:31:01;;;;;;;12.17;6.60;;;;;;;;;;762671;184;917947;-65
2023/10/22 05:33:27;;;;;;;16.97;5.77;;;;;;;;;;761539;183;918943;-64
2023/10/22 05:35:53;;;;;;;13.80;7.50;;;;;;;;;;763789;183;853810;-64
2023/10/22 05:38:19;;;;;;;11.83;7.13;;;;;;;;;;748528;186;919451;-65
2023/10/22 05:40:44;;;;;;;10.10;6.10;;;;;;;;;;758318;185;670685;-66
2023/10/22 05:43:11;;;;;;;6.97;5.13;;;;;;;;;;763315;180;898780;-72
2023/10/22 05:45:36;;;;;;;7.50;5.30;;;;;;;;;;761555;183;896638;-65
2023/10/22 05:48:03;;;;;;;7.47;4.63;;;;;;;;;;758141;185;816361;-72
2023/10/22 05:50:28;;;;;;;7.40;3.90;;;;;;;;;;765725;179;929139;-66
2023/10/22 05:52:54;;;;;;;8.23;3.10;;;;;;;;;;765937;180;919733;-65
2023/10/22 05:55:20;;;;;;;10.03;4.07;;;;;;;;;;774939;181;918942;-65
2023/10/22 05:57:46;;;;;;;9.80;3.80;;;;;;;;;;753344;182;919383;-64
2023/10/22 06:00:12;;;;;;;5.87;3.73;;;;;;;;;;755272;184;919564;-65
2023/10/22 06:02:40;;;;;;;10.40;4.03;;;;;;;;;;758962;184;909760;-71
2023/10/22 06:05:05;;;;;;;11.43;5.17;;;;;;;;;;764093;182;921035;-70
2023/10/22 06:07:30;;;;;;;13.50;4.73;;;;;;;;;;767106;180;916027;-72
2023/10/22 06:09:56;;;;;;;16.00;4.60;;;;;;;;;;769956;180;916477;-65
2023/10/22 06:12:22;;;;;;;9.43;4.77;;;;;;;;;;777008;180;917063;-65
2023/10/22 06:14:48;;;;;;;9.40;4.40;;;;;;;;;;768681;180;910260;-66
2023/10/22 06:17:14;;;;;;;6.70;5.30;;;;;;;;;;748410;185;820209;-66
2023/10/22 06:19:40;;;;;;;17.27;5.83;;;;;;;;;;776205;180;633296;-66
2023/10/22 06:22:05;;;;;;;11.53;5.80;;;;;;;;;;773839;180;628554;-65
2023/10/22 06:24:31;;;;;;;11.90;5.03;;;;;;;;;;763074;183;617772;-66
2023/10/22 06:26:57;;;;;;;8.30;5.90;;;;;;;;;;776852;182;627492;-70
2023/10/22 06:29:23;;;;;;;12.00;5.90;;;;;;;;;;774519;182;625040;-66
2023/10/22 06:31:49;;;;;;;11.50;6.53;;;;;;;;;;768167;182;631324;-68
2023/10/22 06:34:15;;;;;;;13.33;6.87;;;;;;;;;;765139;183;817527;-69
2023/10/22 06:36:41;;;;;;;11.60;5.00;;;;;;;;;;779184;180;623625;-69
2023/10/22 06:39:06;;;;;;;8.17;5.30;;;;;;;;;;759344;180;617511;-65
2023/10/22 06:41:32;;;;;;;7.57;5.50;;;;;;;;;;745226;184;851590;-66
2023/10/22 06:43:58;;;;;;;9.53;5.80;;;;;;;;;;773648;180;918764;-65
2023/10/22 06:46:24;;;;;;;14.40;5.40;;;;;;;;;;768447;180;928407;-66
2023/10/22 06:48:50;;;;;;;7.43;5.20;;;;;;;;;;769957;180;917451;-68
2023/10/22 06:51:16;;;;;;;10.80;6.57;;;;;;;;;;775723;180;914355;-67
2023/10/22 06:53:41;;;;;;;10.10;6.27;;;;;;;;;;755574;183;913151;-68
2023/10/22 06:56:07;;;;;;;9.50;6.37;;;;;;;;;;768318;179;915010;-68
2023/10/22 06:58:34;;;;;;;9.55;6.70;;;;;;;;;;757380;184;917684;-65
2023/10/22 07:01:06;;;;;;;16.17;6.60;;;;;;;;;;767427;182;917188;-65
2023/10/22 07:03:32;;;;;;;10.85;5.93;;;;;;;;;;761422;180;921945;-66
2023/10/22 07:05:58;;;;;;;8.98;6.55;;;;;;;;;;764341;180;919187;-66
2023/10/22 07:08:24;;;;;;;9.90;7.17;;;;;;;;;;771063;180;919242;-66
2023/10/22 07:10:50;;;;;;;13.60;7.97;;;;;;;;;;752694;184;824897;-65
2023/10/22 07:13:18;;;;;;;17.13;9.00;;;;;;;;;;757907;184;952128;-65
2023/10/22 07:15:42;;;;;;;19.30;9.53;;;;;;;;;;776553;180;918254;-68
2023/10/22 07:18:08;;;;;;;14.90;9.60;;;;;;;;;;780306;178;716244;-64
2023/10/22 07:20:34;;;;;;;18.60;10.63;;;;;;;;;;768917;179;919098;-66
2023/10/22 07:23:01;;;;;;;16.63;10.40;;;;;;;;;;771183;180;920501;-69
2023/10/22 07:25:25;;;;;;;17.83;12.30;;;;;;;;;;776039;180;918218;-65
2023/10/22 07:27:51;;;;;;;18.40;11.10;;;;;;;;;;749479;184;918516;-65
2023/10/22 07:30:17;;;;;;;17.60;11.30;;;;;;;;;;753639;183;918529;-64
2023/10/22 07:32:43;;;;;;;16.33;11.00;;;;;;;;;;763201;184;921108;-65
2023/10/22 07:35:09;;;;;;;11.57;8.35;;;;;;;;;;752863;183;817516;-64
2023/10/22 07:37:36;;;;;;;12.20;9.27;;;;;;;;;;769157;179;817607;-67
2023/10/22 07:40:02;;;;;;;14.37;9.73;;;;;;;;;;773328;180;916833;-70
2023/10/22 07:42:26;;;;;;;12.57;9.03;;;;;;;;;;769681;181;852285;-66
2023/10/22 07:44:52;;;;;;;13.97;8.90;;;;;;;;;;771190;179;918334;-70
2023/10/22 07:47:18;;;;;;;8.13;7.23;;;;;;;;;;745377;184;919167;-68
2023/10/22 07:49:44;;;;;;;9.07;7.80;;;;;;;;;;772312;181;921161;-66
2023/10/22 07:52:10;;;;;;;9.97;7.90;;;;;;;;;;767086;180;918078;-68
2023/10/22 07:54:36;;;;;;;9.70;8.73;;;;;;;;;;766860;181;920982;-69
2023/10/22 07:57:01;;;;;;;11.80;10.60;;;;;;;;;;773779;180;923711;-70
2023/10/22 07:59:27;;;;;;;10.33;9.10;;;;;;;;;;751195;184;919085;-67
2023/10/22 08:01:53;;;;;;;9.50;8.53;;;;;;;;;;754047;185;1018699;-66
2023/10/22 08:04:19;;;;;;;11.93;9.63;;;;;;;;;;755814;184;915116;-70
2023/10/22 08:06:45;;;;;;;12.10;10.63;;;;;;;;;;744701;185;917851;-67
2023/10/22 08:09:11;;;;;;;14.67;11.77;;;;;;;;;;739460;187;922816;-65
2023/10/22 08:11:36;;;;;;;14.83;12.27;;;;;;;;;;754656;185;817743;-65
2023/10/22 08:14:02;;;;;;;15.50;11.60;;;;;;;;;;764424;184;624176;-65
2023/10/22 08:16:28;;;;;;;17.50;13.70;;;;;;;;;;759972;182;629311;-66
2023/10/22 08:18:54;;;;;;;13.30;11.17;;;;;;;;;;755964;184;627922;-70
2023/10/22 08:21:21;;;;;;;18.20;12.50;;;;;;;;;;772844;180;642926;-69
2023/10/22 08:23:47;;;;;;;18.53;10.57;;;;;;;;;;768506;182;818012;-64
2023/10/22 08:26:12;;;;;;;12.90;9.55;;;;;;;;;;758029;184;913160;-69
2023/10/22 08:28:37;;;;;;;14.87;9.17;;;;;;;;;;762127;183;625685;-65
2023/10/22 08:31:03;;;;;;;9.80;7.90;;;;;;;;;;770980;182;916160;-70
2023/10/22 08:33:31;;;;;;;10.60;7.90;;;;;;;;;;769908;181;645416;-66
2023/10/22 08:35:55;;;;;;;9.40;6.53;;;;;;;;;;773781;181;619258;-69
2023/10/22 08:38:21;;;;;;;10.43;7.57;;;;;;;;;;771045;181;693075;-66
2023/10/22 08:40:48;;;;;;;9.97;7.53;;;;;;;;;;771114;182;632934;-66
2023/10/22 08:43:15;;;;;;;8.03;6.17;;;;;;;;;;769053;182;629815;-67
2023/10/22 08:45:40;;;;;;;12.43;6.63;;;;;;;;;;768802;182;620545;-69
2023/10/22 08:48:06;;;;;;;9.37;6.37;;;;;;;;;;767891;181;661862;-71
2023/10/22 08:50:32;;;;;;;8.90;6.03;;;;;;;;;;770107;181;635564;-66
2023/10/22 08:52:58;;;;;;;8.50;6.97;;;;;;;;;;775328;181;633671;-72
2023/10/22 08:55:23;;;;;;;7.70;6.07;;;;;;;;;;771631;180;775673;-71
2023/10/22 08:57:49;;;;;;;10.63;6.93;;;;;;;;;;768704;181;922779;-71
2023/10/22 09:00:16;;;;;;;6.50;5.67;;;;;;;;;;772071;183;919183;-66
2023/10/22 09:02:41;;;;;;;10.37;7.20;;;;;;;;;;768085;182;918430;-72
2023/10/22 09:05:07;;;;;;;9.63;5.93;;;;;;;;;;765535;180;917609;-71
2023/10/22 09:07:39;;;;;;;13.80;8.87;;;;;;;;;;771925;180;624466;-67
2023/10/22 09:10:05;;;;;;;8.50;6.53;;;;;;;;;;769626;180;626106;-72
2023/10/22 09:12:33;;;;;;;6.50;5.20;;;;;;;;;;763777;181;628740;-72
2023/10/22 09:14:57;;;;;;;6.63;5.07;;;;;;;;;;769834;180;788993;-66
2023/10/22 09:17:24;;;;;;;8.10;4.67;;;;;;;;;;775176;182;625945;-72
2023/10/22 09:19:49;;;;;;;6.53;4.97;;;;;;;;;;770257;180;874098;-65
2023/10/22 09:22:21;;;;;;;6.75;4.20;;;;;;;;;;766830;180;918731;-72
2023/10/22 09:24:47;;;;;;;5.33;4.50;;;;;;;;;;768374;180;918945;-67
2023/10/22 09:27:13;;;;;;;6.33;4.23;;;;;;;;;;769427;183;721080;-71
2023/10/22 09:29:51;;;;;;;5.53;3.30;;;;;;;;;;766951;180;908567;-72
2023/10/22 09:32:16;;;;;;;5.10;3.60;;;;;;;;;;760330;180;813551;-67
2023/10/22 09:34:42;;;;;;;4.70;3.87;;;;;;;;;;764235;180;916543;-71
2023/10/22 09:37:08;;;;;;;6.90;5.00;;;;;;;;;;771442;180;919014;-71
2023/10/22 09:39:34;;;;;;;4.60;3.40;;;;;;;;;;764497;181;919486;-67
2023/10/22 09:42:00;;;;;;;5.20;3.10;;;;;;;;;;770159;182;815232;-72
2023/10/22 09:44:27;;;;;;;3.60;2.80;;;;;;;;;;774548;181;815867;-66
2023/10/22 09:46:51;;;;;;;3.63;2.43;;;;;;;;;;772873;180;629169;-73
2023/10/22 09:49:17;;;;;;;3.90;2.40;;;;;;;;;;769725;180;714653;-66
2023/10/22 09:51:43;;;;;;;6.40;3.10;;;;;;;;;;774618;181;919358;-67
2023/10/22 09:54:09;;;;;;;3.70;2.77;;;;;;;;;;771411;180;814769;-67
2023/10/22 09:56:37;;;;;;;3.90;2.53;;;;;;;;;;772960;182;619073;-67
2023/10/22 09:59:03;;;;;;;5.33;2.67;;;;;;;;;;770000;181;918640;-72
2023/10/22 10:01:29;;;;;;;4.13;2.40;;;;;;;;;;775380;181;623780;-66
2023/10/22 10:03:54;;;;;;;3.00;2.43;;;;;;;;;;765897;182;915438;-71
2023/10/22 10:06:20;;;;;;;6.60;2.63;;;;;;;;;;762868;182;1009108;-71
2023/10/22 10:08:46;;;;;;;3.30;2.10;;;;;;;;;;773039;182;917237;-71
2023/10/22 10:11:12;;;;;;;2.97;1.80;;;;;;;;;;765889;182;920168;-71
2023/10/22 10:13:39;;;;;;;3.30;1.60;;;;;;;;;;766553;182;915599;-65
2023/10/22 10:16:04;;;;;;;3.00;1.60;;;;;;;;;;773568;180;918253;-66
2023/10/22 10:18:35;;;;;;;3.37;1.60;;;;;;;;;;764831;182;920710;-71
2023/10/22 10:21:01;;;;;;;3.83;1.80;;;;;;;;;;765243;182;919173;-66
2023/10/22 10:23:27;;;;;;;2.67;1.70;;;;;;;;;;768274;180;665792;-71
2023/10/22 10:25:53;;;;;;;2.67;1.77;;;;;;;;;;771844;180;846150;-72
2023/10/22 10:28:19;;;;;;;2.30;1.40;;;;;;;;;;762554;181;918922;-65
2023/10/22 10:30:44;;;;;;;3.93;1.77;;;;;;;;;;769342;181;622896;-66
2023/10/22 10:33:14;;;;;;;2.40;1.43;;;;;;;;;;774680;180;614511;-70
2023/10/22 10:35:43;;;;;;;2.30;1.40;;;;;;;;;;769971;180;632250;-72
2023/10/22 10:38:17;;;;;;;2.63;1.43;;;;;;;;;;760239;182;921349;-66
2023/10/22 10:40:46;;;;;;;2.37;1.30;;;;;;;;;;767809;181;815505;-70
2023/10/22 10:43:12;;;;;;;3.23;1.70;;;;;;;;;;759401;183;918975;-66
2023/10/22 10:45:43;;;;;;;3.03;1.70;;;;;;;;;;773332;182;914506;-66
2023/10/22 10:48:07;;;;;;;2.40;1.53;;;;;;;;;;770545;180;640206;-66
2023/10/22 10:50:32;;;;;;;2.87;1.57;;;;;;;;;;767974;180;618547;-66
2023/10/22 10:53:00;;;;;;;2.50;1.67;;;;;;;;;;773038;180;613520;-66
2023/10/22 10:55:27;;;;;;;2.60;1.73;;;;;;;;;;772328;180;640981;-72
2023/10/22 10:57:53;;;;;;;2.77;1.77;;;;;;;;;;772194;180;691400;-66
2023/10/22 11:00:20;;;;;;;2.93;1.73;;;;;;;;;;766020;182;918839;-72
2023/10/22 11:02:45;;;;;;;2.80;1.73;;;;;;;;;;773531;180;922856;-71
2023/10/22 11:05:11;;;;;;;2.83;1.90;;;;;;;;;;767137;180;919095;-66
2023/10/22 11:07:37;;;;;;;2.57;1.70;;;;;;;;;;766510;180;820774;-71
2023/10/22 11:10:14;;;;;;;3.00;1.93;;;;;;;;;;770891;180;821269;-67
2023/10/22 11:12:40;;;;;;;3.17;1.83;;;;;;;;;;766330;182;917800;-65
2023/10/22 11:15:07;;;;;;;2.27;1.33;;;;;;;;;;760291;182;853717;-66
2023/10/22 11:17:32;;;;;;;3.35;1.50;;;;;;;;;;763085;182;909734;-70
2023/10/22 11:19:58;;;;;;;3.20;1.60;;;;;;;;;;772915;180;918281;-66
2023/10/22 11:22:24;;;;;;;2.60;1.50;;;;;;;;;;766738;180;919855;-65
2023/10/22 11:24:49;;;;;;;2.63;1.53;;;;;;;;;;767197;182;914529;-71
2023/10/22 11:27:15;;;;;;;2.70;1.90;;;;;;;;;;772545;180;940422;-66
2023/10/22 11:29:42;;;;;;;2.60;1.47;;;;;;;;;;769056;180;917644;-70
2023/10/22 11:32:11;;;;;;;2.63;1.70;;;;;;;;;;766342;180;921077;-71
2023/10/22 11:34:37;;;;;;;2.97;1.50;;;;;;;;;;769362;180;921167;-70
2023/10/22 11:37:02;;;;;;;2.40;1.47;;;;;;;;;;773164;181;897883;-70
2023/10/22 11:39:31;;;;;;;2.57;1.60;;;;;;;;;;769524;181;710632;-70
2023/10/22 11:41:59;;;;;;;4.47;2.07;;;;;;;;;;767068;183;923787;-64
2023/10/22 11:44:30;;;;;;;3.83;2.20;;;;;;;;;;773630;182;818434;-64
2023/10/22 11:46:54;;;;;;;3.37;2.37;;;;;;;;;;772141;182;918916;-70
2023/10/22 11:49:20;;;;;;;2.97;1.90;;;;;;;;;;759958;182;816263;-70
2023/10/22 11:51:46;;;;;;;3.60;1.90;;;;;;;;;;767733;181;816412;-70
2023/10/22 11:54:12;;;;;;;3.40;1.70;;;;;;;;;;772178;181;816067;-70
2023/10/22 11:56:38;;;;;;;2.90;1.80;;;;;;;;;;771542;183;628979;-71
2023/10/22 11:59:06;;;;;;;2.50;1.80;;;;;;;;;;767001;180;918550;-71
2023/10/22 12:01:29;;;;;;;2.43;1.63;;;;;;;;;;772269;182;918654;-70
2023/10/22 12:03:55;;;;;;;3.83;1.65;;;;;;;;;;766013;183;921824;-65
2023/10/22 12:06:21;;;;;;;2.70;1.80;;;;;;;;;;768841;181;816042;-66
2023/10/22 12:08:47;;;;;;;3.63;1.80;;;;;;;;;;774189;181;808941;-65
2023/10/22 12:11:13;;;;;;;2.80;1.90;;;;;;;;;;768768;181;919659;-70
2023/10/22 12:13:39;;;;;;;3.13;1.93;;;;;;;;;;765481;182;920785;-65
2023/10/22 12:16:05;;;;;;;3.00;2.23;;;;;;;;;;766352;183;922395;-65
2023/10/22 12:18:31;;;;;;;5.50;2.47;;;;;;;;;;772409;180;917893;-65
2023/10/22 12:20:57;;;;;;;3.33;2.57;;;;;;;;;;762660;182;917534;-65
2023/10/22 12:23:23;;;;;;;3.93;2.67;;;;;;;;;;768177;180;817982;-64
2023/10/22 12:25:48;;;;;;;2.70;1.77;;;;;;;;;;771716;182;921236;-64
2023/10/22 12:28:14;;;;;;;2.90;2.07;;;;;;;;;;768300;182;816462;-65
2023/10/22 12:30:40;;;;;;;2.83;1.93;;;;;;;;;;764129;182;915710;-70
2023/10/22 12:33:06;;;;;;;3.53;1.97;;;;;;;;;;772881;181;907439;-66
2023/10/22 12:35:33;;;;;;;3.47;1.83;;;;;;;;;;768323;182;903161;-71
2023/10/22 12:37:58;;;;;;;5.70;2.60;;;;;;;;;;769097;180;903175;-70
2023/10/22 12:40:24;;;;;;;4.17;2.20;;;;;;;;;;764357;181;909455;-65
2023/10/22 12:42:50;;;;;;;3.00;2.27;;;;;;;;;;771728;182;924404;-70
2023/10/22 12:45:16;;;;;;;2.53;1.67;;;;;;;;;;762375;182;920401;-68
2023/10/22 12:47:42;;;;;;;3.35;2.33;;;;;;;;;;767309;181;920401;-66
2023/10/22 12:50:08;;;;;;;3.03;1.90;;;;;;;;;;772122;182;906409;-68
2023/10/22 12:52:34;;;;;;;3.40;1.93;;;;;;;;;;762885;182;919630;-69
2023/10/22 12:55:00;;;;;;;2.80;1.63;;;;;;;;;;758912;182;917695;-68
2023/10/22 12:57:26;;;;;;;4.20;1.67;;;;;;;;;;771511;182;918796;-65
2023/10/22 12:59:52;;;;;;;2.80;1.83;;;;;;;;;;766221;182;919614;-65
2023/10/22 13:02:17;;;;;;;4.70;1.73;;;;;;;;;;767080;183;837811;-68
2023/10/22 13:04:43;;;;;;;3.83;1.50;;;;;;;;;;767013;183;908293;-69
2023/10/22 13:07:10;;;;;;;2.80;1.60;;;;;;;;;;772525;181;918929;-68
2023/10/22 13:09:35;;;;;;;3.00;1.70;;;;;;;;;;765206;182;918441;-69
2023/10/22 13:12:01;;;;;;;4.83;2.63;;;;;;;;;;768419;180;919019;-68
2023/10/22 13:14:27;;;;;;;5.20;2.23;;;;;;;;;;771609;180;818237;-65
2023/10/22 13:16:52;;;;;;;3.17;1.60;;;;;;;;;;765577;183;910843;-66
2023/10/22 13:19:18;;;;;;;3.60;1.60;;;;;;;;;;767707;181;921029;-68
2023/10/22 13:21:46;;;;;;;3.33;1.93;;;;;;;;;;773260;180;825618;-69
2023/10/22 13:24:10;;;;;;;4.40;1.83;;;;;;;;;;770085;182;917779;-65
2023/10/22 13:26:36;;;;;;;7.20;1.90;;;;;;;;;;766674;182;919440;-65
2023/10/22 13:29:06;;;;;;;5.03;1.63;;;;;;;;;;771176;182;918867;-68
2023/10/22 13:31:27;;;;;;;2.87;1.40;;;;;;;;;;766272;182;917495;-64
2023/10/22 13:33:53;;;;;;;4.07;1.77;;;;;;;;;;766463;180;919512;-68
2023/10/22 13:36:19;;;;;;;3.17;1.60;;;;;;;;;;768225;180;874688;-65
2023/10/22 13:38:46;;;;;;;3.30;1.80;;;;;;;;;;773374;180;853103;-68
2023/10/22 13:41:11;;;;;;;7.13;1.80;;;;;;;;;;768345;180;877761;-68
2023/10/22 13:43:37;;;;;;;5.57;1.90;;;;;;;;;;766444;180;917811;-68
2023/10/22 13:46:03;;;;;;;3.03;1.67;;;;;;;;;;770716;182;918926;-68
2023/10/22 13:48:28;;;;;;;3.03;1.53;;;;;;;;;;768164;180;970181;-67
2023/10/22 13:50:54;;;;;;;3.33;1.90;;;;;;;;;;766074;180;939792;-66
2023/10/22 13:53:20;;;;;;;4.00;1.73;;;;;;;;;;774189;181;818747;-66
2023/10/22 13:55:46;;;;;;;3.67;1.70;;;;;;;;;;765715;180;920517;-67
2023/10/22 13:58:12;;;;;;;5.50;1.80;;;;;;;;;;765875;182;915292;-65
2023/10/22 14:00:38;;;;;;;3.33;2.10;;;;;;;;;;763863;182;921189;-66
2023/10/22 14:03:04;;;;;;;5.27;2.73;;;;;;;;;;757767;185;619230;-69
2023/10/22 14:05:29;;;;;;;34.40;27.47;;;;;;;;;;767869;183;819717;-66
2023/10/22 14:07:55;;;;;;;4.97;2.22;;;;;;;;;;763279;183;1070015;-67
2023/10/22 14:10:21;;;;;;;5.57;2.10;;;;;;;;;;758516;185;917916;-65
2023/10/22 14:12:47;;;;;;;3.87;2.63;;;;;;;;;;760977;181;810971;-65
2023/10/22 14:15:13;;;;;;;4.47;1.70;;;;;;;;;;756967;183;920562;-64
2023/10/22 14:17:39;;;;;;;3.75;1.95;;;;;;;;;;750874;185;853138;-68